< Typhoon 202106 2021 Season Typhoon 202108 >
Typhoon 202107 (CEMPAKA)
General InformationTrack Information on Google MapsDetailed Wind InformationForecast History on Google MapsAccess Analytics MapList of All Images || NewsDisaster Info.WeblogTrackbackTyphoon FrontTwiphoonTyphoon Now!Typhoon ImaginationJMA Disaster Info. XMLResourceGoogle EarthGE AnimationAtom FeedGeoJSON
Detalied Best Track (Time Zone = UTC)
Year Month Day Hour Lat. Long. Pressure (hPa) Wind (kt) Class Image Chart
2021 7 17 00 18.9 117.1 1004 0 2 Image Chart
2021 7 17 06 19.4 116.8 1002 0 2 Image Chart
2021 7 17 12 19.7 116.3 1002 0 2 Image Chart
2021 7 17 18 19.9 115.8 1002 0 2 Image Chart
2021 7 18 00 20.3 115.4 1002 0 2 Image Chart
2021 7 18 06 20.7 114.8 1000 0 2 Image Chart
2021 7 18 12 20.9 114.1 1000 0 2 Image Chart
2021 7 18 18 20.9 113.6 998 35 3 Image Chart
2021 7 19 00 20.9 113.2 994 45 3 Image Chart
2021 7 19 06 21.0 112.9 992 50 4 Image Chart
2021 7 19 12 21.1 112.7 990 55 4 Image Chart
2021 7 19 18 21.2 112.5 985 65 5 Image Chart
2021 7 20 00 21.3 112.4 980 70 5 Image Chart
2021 7 20 06 21.4 112.3 980 70 5 Image Chart
2021 7 20 12 21.6 112.1 990 60 4 Image Chart
2021 7 20 18 21.8 111.5 992 50 4 Image Chart
2021 7 21 00 21.9 111.0 996 40 3 Image Chart
2021 7 21 06 22.1 110.5 998 35 3 Image Chart
2021 7 21 12 22.2 110.0 998 35 3 Image Chart
2021 7 21 18 22.3 109.5 998 35 3 Image Chart
2021 7 22 00 22.2 108.8 1000 0 2 Image Chart
2021 7 22 06 22.0 108.3 1000 0 2 Image Chart
2021 7 22 12 21.7 107.7 998 0 2 Image Chart
2021 7 22 18 21.4 107.3 998 0 2 Image Chart
2021 7 23 00 21.0 107.1 998 0 2 Image Chart
2021 7 23 06 20.6 107.0 996 0 2 Image Chart
2021 7 23 12 20.1 107.1 996 0 2 Image Chart
2021 7 23 18 19.6 107.0 996 0 2 Image Chart
2021 7 24 00 19.3 106.8 996 0 2 Image Chart
2021 7 24 06 18.9 106.6 996 0 2 Image Chart
2021 7 24 12 18.5 106.6 996 0 2 Image Chart
2021 7 24 18 18.2 106.7 998 0 2 Image Chart
2021 7 25 00 18.1 107.1 998 0 2 Image Chart
Japan Meteorological Agency Best Track Data | Correction Date : 2021-11-01
< Typhoon 202106 2021 Season Typhoon 202108 >

Help